WetterOnline ( https://www.wetteronline.at )

Wetter aktuell Diepholz

Aktuelles Wetter: Diepholz (40m)

6-stündlich | Neueste Meldungen
Ortszeit Temperatur Wetter
Di, 25.02. 7:00 5.6° C leicht bewölkt
Di, 25.02. 1:00 10.1° C bedeckt
Mo, 24.02. 19:00 9.5° C leichter Regen
Mo, 24.02. 13:00 5.0° C leichter Regen
Mo, 24.02. 7:00 3.6° C bedeckt
Mo, 24.02. 1:00 4.5° C wolkenlos
So, 23.02. 19:00 5.9° C bewölkt
So, 23.02. 13:00 7.3° C Sprühregen
Ortszeit Temperatur Wetter
Di, 25.02. 11:00 7.5° C wolkig
Di, 25.02. 10:50 7.5° C wolkig
Di, 25.02. 10:40 7.3° C bewölkt
Di, 25.02. 10:30 6.6° C bewölkt
Di, 25.02. 10:20 6.6° C Sprühregen
Di, 25.02. 10:10 6.6° C bewölkt
Di, 25.02. 10:00 7.0° C wolkig
Di, 25.02. 9:30 6.4° C wolkenlos
Di, 25.02. 9:00 5.9° C wolkenlos
Di, 25.02. 8:30 5.6° C wolkig
Di, 25.02. 8:00 5.1° C fast wolkenlos
Ortszeit Relative Feuchte Sichtweite
Di, 25.02. 7:00 77% 35 km
Di, 25.02. 1:00 87% 40 km
Mo, 24.02. 19:00 93% 13 km
Mo, 24.02. 13:00 81% 15 km
Mo, 24.02. 7:00 89% 24 km
Mo, 24.02. 1:00 79% 29 km
So, 23.02. 19:00 83% 65 km
So, 23.02. 13:00 100% 6 km
Ortszeit Relative Feuchte Sichtweite
Di, 25.02. 11:00 73% 55 km
Di, 25.02. 10:50 73% -
Di, 25.02. 10:40 74% -
Di, 25.02. 10:30 75% 45 km
Di, 25.02. 10:20 75% -
Di, 25.02. 10:10 75% -
Di, 25.02. 10:00 74% 45 km
Di, 25.02. 9:30 73% 50 km
Di, 25.02. 9:00 76% 50 km
Di, 25.02. 8:30 76% 45 km
Di, 25.02. 8:00 78% 60 km
Ortszeit Niederschlagsmenge Niederschlagsart
Di, 25.02. 7:00 2 l/m2 in 12 Std. Regen
Di, 25.02. 1:00 2 l/m2 in 6 Std. Regen
Mo, 24.02. 19:00 9 l/m2 in 12 Std. Regen
Mo, 24.02. 13:00 0.2 l/m2 in 6 Std. Regen
Mo, 24.02. 7:00 2 l/m2 in 12 Std. -
Mo, 24.02. 1:00 2 l/m2 in 6 Std. Regen
So, 23.02. 19:00 17 l/m2 in 12 Std. Regen
So, 23.02. 13:00 13 l/m2 in 6 Std. Regen
Ortszeit Niederschlagsmenge Niederschlagsart
Di, 25.02. 11:00 0.1 l/m2 in 1 Std. Regen
Di, 25.02. 10:50 keine Meldung -
Di, 25.02. 10:40 keine Meldung -
Di, 25.02. 10:30 0.1 l/m2 in 1 Std. Schnee
Di, 25.02. 10:20 keine Meldung -
Di, 25.02. 10:10 keine Meldung -
Di, 25.02. 10:00 0.0 l/m2 in 1 Std. -
Di, 25.02. 9:30 0.0 l/m2 in 1 Std. -
Di, 25.02. 9:00 0.0 l/m2 in 1 Std. -
Di, 25.02. 8:30 0.0 l/m2 in 1 Std. -
Di, 25.02. 8:00 0.0 l/m2 in 1 Std. -
Ortszeit Stärke Spitze Richtung
km/h Bft. km/h Grad Sektor
Di, 25.02. 7:00 25 4 65 250° W
Di, 25.02. 1:00 40 6 61 240° SW
Mo, 24.02. 19:00 36 5 50 240° SW
Mo, 24.02. 13:00 15 3 33 150° SO
Mo, 24.02. 7:00 14 3 40 240° SW
Mo, 24.02. 1:00 25 4 61 270° W
So, 23.02. 19:00 30 5 83 300° NW
So, 23.02. 13:00 11 2 33 200° S
Ortszeit Stärke Spitze Richtung
km/h Bft. km/h Grad Sektor
Di, 25.02. 11:00 39 6 56 250° W
Di, 25.02. 10:50 39 6 - 250° W
Di, 25.02. 10:40 32 5 - 250° W
Di, 25.02. 10:30 33 5 50 250° W
Di, 25.02. 10:20 33 5 - 250° W
Di, 25.02. 10:10 33 5 - 250° W
Di, 25.02. 10:00 32 5 50 250° W
Di, 25.02. 9:30 33 5 46 240° SW
Di, 25.02. 9:00 26 4 41 240° SW
Di, 25.02. 8:30 26 4 39 240° SW
Di, 25.02. 8:00 22 4 36 240° SW
Ortszeit Untergrenze Bedeckung Gattung
total tief tief mittel hoch
Di, 25.02. 7:00 870 m 3/8 3/8 - - -
Di, 25.02. 1:00 510 m 8/8 8/8 - - -
Mo, 24.02. 19:00 420 m 8/8 8/8 - - -
Mo, 24.02. 13:00 810 m 5/8 5/8 - - -
Mo, 24.02. 7:00 3900 m 8/8 8/8 - - -
Mo, 24.02. 1:00 - 0/8 0/8 - - -
So, 23.02. 19:00 480 m 7/8 7/8 - - -
So, 23.02. 13:00 150 m 8/8 8/8 - - -
Ortszeit Bedeckungsgrad in Achtel und Wolkenuntergrenze
Di, 25.02. 11:00 2(780m) 6(1050m) 6(1320m)
Di, 25.02. 10:50 2(780m) 6(1050m) 6(1320m)
Di, 25.02. 10:40 4(810m) 7(990m) 7(1200m)
Di, 25.02. 10:30 4(870m) 7(1380m) 7(1500m)
Di, 25.02. 10:20 4(870m) 7(1380m) 7(1500m)
Di, 25.02. 10:10 2(840m) 6(1410m) 7(1800m)
Di, 25.02. 10:00 3(840m) 5(2100m) 7(1800m)
Di, 25.02. 9:30 keine Wolken
Di, 25.02. 9:00 keine Wolken
Di, 25.02. 8:30 5(1110m)
Di, 25.02. 8:00 1(1020m)
Ortszeit Luftdruck NN (hPa) Tendenz (hPa in 3 Std.)
Di, 25.02. 7:00 999 - 0,3
Di, 25.02. 1:00 999 - 1,3
Mo, 24.02. 19:00 1001 - 4,3
Mo, 24.02. 13:00 1014 - 5,1
Mo, 24.02. 7:00 1021 + 0,2
Mo, 24.02. 1:00 1020 + 2,7
So, 23.02. 19:00 1012 + 8,5
So, 23.02. 13:00 1002 - 6,0
Ortszeit Luftdruck NN (hPa) Tendenz (hPa in 3 Std.)
Di, 25.02. 11:00 997 - 1,2
Di, 25.02. 10:50 997 keine Meldung
Di, 25.02. 10:40 997 keine Meldung
Di, 25.02. 10:30 997 - 1,1
Di, 25.02. 10:20 997 keine Meldung
Di, 25.02. 10:10 997 keine Meldung
Di, 25.02. 10:00 997 - 1,1
Di, 25.02. 9:30 998 - 1,1
Di, 25.02. 9:00 998 - 0,8
Di, 25.02. 8:30 998 - 0,5
Di, 25.02. 8:00 998 - 0,5
Ortszeit Schneehöhe (cm)
Di, 25.02. 7:00 0
Di, 25.02. 1:00 0
Mo, 24.02. 19:00 0
Mo, 24.02. 13:00 0
Mo, 24.02. 7:00 0
Mo, 24.02. 1:00 0
So, 23.02. 19:00 0
So, 23.02. 13:00 0
Ortszeit Schneehöhe (cm)
Di, 25.02. 11:00 0
Di, 25.02. 10:50 0
Di, 25.02. 10:40 0
Di, 25.02. 10:30 0
Di, 25.02. 10:20 0
Di, 25.02. 10:10 0
Di, 25.02. 10:00 0
Di, 25.02. 9:30 0
Di, 25.02. 9:00 0
Di, 25.02. 8:30 0
Di, 25.02. 8:00 0
Link zu dieser Seite / Seite empfehlen

Das Wetter in ...